Skelton, AK

10:55 AM AKDT on May 22, 2015 (GMT -0800)
Eureka | | Change Station
CLOSE
Current Station
Airport
Location: Eureka,
Elevation: 3287 ft
Nearby Weather Stations
Active Advisory: Fire Weather Warning Active Notice: Record Report

Elev 3287 ft 61.93 °N, 147.17 °W | Updated 19 minutes ago

Clear
Clear
59 °F
Feels Like 59 °F
N
7
Wind Variable Wind from ESE

Today
High -- | Low -- °F
--% Chance of Precip.
Yesterday
High -- | Low -- °F
Precip. -- in
4:37 AM 10:54 PM
Waxing Crescent, 23% visible
Pressure 30.14 in
Visibility 10.0 miles
Clouds Clear
Dew Point 34 °F
Humidity 39%
Rainfall 0.00 in
Snow Depth Not available.
UV 5 out of 12
Pollen Not available.
Air Quality Not available.
Flu Activity Sporadic
METAR PAZK 221836Z AUTO 11006KT 10SM CLR 15/01 A3014 RMK AO1

More Conditions Fewer Conditions

Pressure 30.14 in
Visibility 10.0 miles
Clouds Clear
Dew Point 34 °F
Humidity 39%
Rainfall 0.00 in
Snow Depth Not available.
UV 5 out of 12
Pollen Not available.
Air Quality Not available.
Flu Activity Sporadic
METAR PAZK 221836Z AUTO 11006KT 10SM CLR 15/01 A3014 RMK AO1

More Conditions Fewer Conditions

10-Day Weather Forecast

Almanac

Astronomy

May. 22, 2015 Rise Set
Actual Time
Civil Twilight
Nautical Twilight
Astronomical Twilight
Moon
Length of Visible Light
Length of Day
Tomorrow will be .
, % of the Moon is Illuminated

Today's Extremes

State Highs State Lows

Community

WunderPhotos

Upload Photos

1,823,276 photos uploaded!

WunderBlogs® & News

Nearby

Air Quality

  Air Quality AQ Index Pollutant
Not available.

Snow Depth

Station Depth Elevation

Earthquake Activity

City Distance Mag. Time & Date
Minimum magnitude displayed is 2.5.

Coastal Water Temperatures

Place Temperature

Stations

Nearby Weather Stations

Station Location Temp. Windchill Dew Point Humidity Wind Precip. Elev Updated Type
                   
Fire Weather Warning
Statement as of 6:39 AM AKDT on May 22, 2015

... Red flag warning now in effect until 9 PM akdt Saturday for
strong wind and low humidity for the Copper River basin...

* 20 ft winds... south winds 5 to 15 mph during the afternoon and
evening hours Friday. South winds 15 to 25 mph with gusts to 35
mph during the afternoon and evening hours Saturday.

* Relative humidity... 10 to 15 percent during the afternoon and
evening hours today and Saturday recovering above 50 percent by
midnight each night.

* Temperatures... in the upper 70s to lower 80s.

* Timing... humidities are expected to fall to critical values
during the afternoon and evening hours through Saturday. South
winds will develop each afternoon and evening along the Copper
River... but will be substantially stronger on Saturday
afternoon/evening.

Precautionary/preparedness actions... a red flag warning means
that critical fire weather conditions are imminent or occurring
now... or will shortly. It is directed toward fire agencies... and
through them to the public.